sensor_id;sensor_type;location;lat;lon;timestamp;P1;durP1;ratioP1;P2;durP2;ratioP2
27706;SDS011;36332;51.384;0.040;2023-05-10T00:00:57;14.65;;;6.13;;
27706;SDS011;36332;51.384;0.040;2023-05-10T00:03:24;11.30;;;4.65;;
27706;SDS011;36332;51.384;0.040;2023-05-10T00:05:52;9.80;;;5.38;;
27706;SDS011;36332;51.384;0.040;2023-05-10T00:08:19;8.88;;;4.85;;
27706;SDS011;36332;51.384;0.040;2023-05-10T00:10:47;8.65;;;4.25;;
27706;SDS011;36332;51.384;0.040;2023-05-10T00:13:14;9.90;;;4.57;;
27706;SDS011;36332;51.384;0.040;2023-05-10T00:15:42;9.57;;;4.93;;
27706;SDS011;36332;51.384;0.040;2023-05-10T00:18:10;15.13;;;6.32;;
27706;SDS011;36332;51.384;0.040;2023-05-10T00:20:38;11.35;;;4.93;;
27706;SDS011;36332;51.384;0.040;2023-05-10T00:23:05;11.50;;;4.78;;
27706;SDS011;36332;51.384;0.040;2023-05-10T00:25:33;10.88;;;4.95;;
27706;SDS011;36332;51.384;0.040;2023-05-10T00:28:00;10.52;;;4.93;;
27706;SDS011;36332;51.384;0.040;2023-05-10T00:30:28;10.43;;;5.28;;
27706;SDS011;36332;51.384;0.040;2023-05-10T00:32:56;13.25;;;5.00;;
27706;SDS011;36332;51.384;0.040;2023-05-10T00:35:24;10.38;;;5.55;;
27706;SDS011;36332;51.384;0.040;2023-05-10T00:37:51;15.55;;;5.45;;
27706;SDS011;36332;51.384;0.040;2023-05-10T00:40:20;9.93;;;5.60;;
27706;SDS011;36332;51.384;0.040;2023-05-10T00:42:52;11.18;;;6.38;;
27706;SDS011;36332;51.384;0.040;2023-05-10T00:45:20;13.63;;;5.72;;
27706;SDS011;36332;51.384;0.040;2023-05-10T00:47:48;9.75;;;5.35;;
27706;SDS011;36332;51.384;0.040;2023-05-10T00:50:16;10.43;;;6.13;;
27706;SDS011;36332;51.384;0.040;2023-05-10T00:52:45;13.52;;;6.25;;
27706;SDS011;36332;51.384;0.040;2023-05-10T00:55:13;14.40;;;6.88;;
27706;SDS011;36332;51.384;0.040;2023-05-10T00:57:41;15.68;;;7.28;;
27706;SDS011;36332;51.384;0.040;2023-05-10T01:00:09;10.82;;;5.75;;
27706;SDS011;36332;51.384;0.040;2023-05-10T01:02:38;11.85;;;7.05;;
27706;SDS011;36332;51.384;0.040;2023-05-10T01:05:07;14.48;;;7.85;;
27706;SDS011;36332;51.384;0.040;2023-05-10T01:07:35;14.65;;;7.18;;
27706;SDS011;36332;51.384;0.040;2023-05-10T01:10:04;19.27;;;7.68;;
27706;SDS011;36332;51.384;0.040;2023-05-10T01:12:37;16.52;;;8.10;;
27706;SDS011;36332;51.384;0.040;2023-05-10T01:15:06;17.85;;;7.75;;
27706;SDS011;36332;51.384;0.040;2023-05-10T01:17:37;16.08;;;7.75;;
27706;SDS011;36332;51.384;0.040;2023-05-10T01:20:07;18.63;;;8.02;;
27706;SDS011;36332;51.384;0.040;2023-05-10T01:31:12;15.30;;;8.50;;
27706;SDS011;36332;51.384;0.040;2023-05-10T01:34:07;17.13;;;8.35;;
27706;SDS011;36332;51.384;0.040;2023-05-10T01:36:45;17.27;;;9.70;;
27706;SDS011;36332;51.384;0.040;2023-05-10T01:39:21;17.63;;;8.48;;
27706;SDS011;36332;51.384;0.040;2023-05-10T01:41:52;16.92;;;9.10;;
27706;SDS011;36332;51.384;0.040;2023-05-10T01:44:29;23.38;;;9.40;;
27706;SDS011;36332;51.384;0.040;2023-05-10T01:47:28;18.23;;;9.73;;
27706;SDS011;36332;51.384;0.040;2023-05-10T01:50:10;18.65;;;9.07;;
27706;SDS011;36332;51.384;0.040;2023-05-10T01:52:53;21.55;;;8.55;;
27706;SDS011;36332;51.384;0.040;2023-05-10T01:55:24;17.20;;;9.02;;
27706;SDS011;36332;51.384;0.040;2023-05-10T01:58:00;17.05;;;9.20;;
27706;SDS011;36332;51.384;0.040;2023-05-10T02:00:35;16.40;;;9.13;;
27706;SDS011;36332;51.384;0.040;2023-05-10T02:03:07;17.45;;;9.98;;
27706;SDS011;36332;51.384;0.040;2023-05-10T02:05:37;16.35;;;9.15;;
27706;SDS011;36332;51.384;0.040;2023-05-10T02:08:07;17.88;;;9.32;;
27706;SDS011;36332;51.384;0.040;2023-05-10T02:10:36;15.40;;;9.90;;
27706;SDS011;36332;51.384;0.040;2023-05-10T02:13:07;19.55;;;9.70;;
27706;SDS011;36332;51.384;0.040;2023-05-10T02:15:36;17.85;;;10.43;;
27706;SDS011;36332;51.384;0.040;2023-05-10T02:18:05;20.00;;;9.90;;
27706;SDS011;36332;51.384;0.040;2023-05-10T02:20:35;14.75;;;10.40;;
27706;SDS011;36332;51.384;0.040;2023-05-10T02:23:04;16.27;;;10.25;;
27706;SDS011;36332;51.384;0.040;2023-05-10T02:25:33;19.73;;;9.68;;
27706;SDS011;36332;51.384;0.040;2023-05-10T02:28:02;27.40;;;11.30;;
27706;SDS011;36332;51.384;0.040;2023-05-10T02:30:32;24.17;;;10.48;;
27706;SDS011;36332;51.384;0.040;2023-05-10T02:33:01;21.08;;;11.02;;
27706;SDS011;36332;51.384;0.040;2023-05-10T02:35:32;19.88;;;10.50;;
27706;SDS011;36332;51.384;0.040;2023-05-10T02:38:01;21.75;;;9.63;;
27706;SDS011;36332;51.384;0.040;2023-05-10T02:40:30;17.75;;;9.88;;
27706;SDS011;36332;51.384;0.040;2023-05-10T02:42:59;23.75;;;10.15;;
27706;SDS011;36332;51.384;0.040;2023-05-10T02:45:31;20.95;;;9.43;;
27706;SDS011;36332;51.384;0.040;2023-05-10T02:48:00;15.65;;;9.45;;
27706;SDS011;36332;51.384;0.040;2023-05-10T02:50:28;22.95;;;9.57;;
27706;SDS011;36332;51.384;0.040;2023-05-10T02:53:00;19.30;;;11.43;;
27706;SDS011;36332;51.384;0.040;2023-05-10T02:55:35;21.85;;;9.45;;
27706;SDS011;36332;51.384;0.040;2023-05-10T02:58:05;16.48;;;8.57;;
27706;SDS011;36332;51.384;0.040;2023-05-10T03:00:33;24.08;;;9.20;;
27706;SDS011;36332;51.384;0.040;2023-05-10T03:03:02;17.63;;;9.00;;
27706;SDS011;36332;51.384;0.040;2023-05-10T03:05:30;19.10;;;8.93;;
27706;SDS011;36332;51.384;0.040;2023-05-10T03:08:00;24.35;;;9.95;;
27706;SDS011;36332;51.384;0.040;2023-05-10T03:10:31;22.80;;;9.45;;
27706;SDS011;36332;51.384;0.040;2023-05-10T03:13:10;17.38;;;9.25;;
27706;SDS011;36332;51.384;0.040;2023-05-10T03:15:54;24.52;;;9.88;;
27706;SDS011;36332;51.384;0.040;2023-05-10T03:18:33;19.20;;;9.00;;
27706;SDS011;36332;51.384;0.040;2023-05-10T03:21:11;22.98;;;10.07;;
27706;SDS011;36332;51.384;0.040;2023-05-10T03:23:43;18.80;;;9.13;;
27706;SDS011;36332;51.384;0.040;2023-05-10T03:26:18;17.42;;;9.15;;
27706;SDS011;36332;51.384;0.040;2023-05-10T03:28:52;19.83;;;10.52;;
27706;SDS011;36332;51.384;0.040;2023-05-10T03:31:20;19.80;;;9.75;;
27706;SDS011;36332;51.384;0.040;2023-05-10T03:33:48;20.27;;;10.50;;
27706;SDS011;36332;51.384;0.040;2023-05-10T03:36:22;19.50;;;9.43;;
27706;SDS011;36332;51.384;0.040;2023-05-10T03:38:50;19.80;;;10.13;;
27706;SDS011;36332;51.384;0.040;2023-05-10T03:41:17;22.00;;;9.98;;
27706;SDS011;36332;51.384;0.040;2023-05-10T03:43:45;22.77;;;9.27;;
27706;SDS011;36332;51.384;0.040;2023-05-10T03:46:12;19.27;;;9.80;;
27706;SDS011;36332;51.384;0.040;2023-05-10T03:48:40;22.27;;;10.77;;
27706;SDS011;36332;51.384;0.040;2023-05-10T03:51:07;22.50;;;11.70;;
27706;SDS011;36332;51.384;0.040;2023-05-10T03:53:35;21.05;;;10.75;;
27706;SDS011;36332;51.384;0.040;2023-05-10T03:56:03;21.17;;;11.20;;
27706;SDS011;36332;51.384;0.040;2023-05-10T03:58:31;21.00;;;10.50;;
27706;SDS011;36332;51.384;0.040;2023-05-10T04:00:58;24.80;;;11.15;;
27706;SDS011;36332;51.384;0.040;2023-05-10T04:03:26;23.30;;;11.23;;
27706;SDS011;36332;51.384;0.040;2023-05-10T04:06:00;23.95;;;12.02;;
27706;SDS011;36332;51.384;0.040;2023-05-10T04:08:29;24.45;;;12.55;;
27706;SDS011;36332;51.384;0.040;2023-05-10T04:11:09;27.95;;;12.15;;
27706;SDS011;36332;51.384;0.040;2023-05-10T04:13:38;21.73;;;10.70;;
27706;SDS011;36332;51.384;0.040;2023-05-10T04:16:05;23.08;;;13.13;;
27706;SDS011;36332;51.384;0.040;2023-05-10T04:18:33;23.50;;;12.50;;
27706;SDS011;36332;51.384;0.040;2023-05-10T04:21:01;35.15;;;12.98;;
27706;SDS011;36332;51.384;0.040;2023-05-10T04:23:29;24.92;;;12.63;;
27706;SDS011;36332;51.384;0.040;2023-05-10T04:26:00;25.95;;;12.55;;
27706;SDS011;36332;51.384;0.040;2023-05-10T04:28:28;28.13;;;12.35;;
27706;SDS011;36332;51.384;0.040;2023-05-10T04:31:06;31.52;;;13.60;;
27706;SDS011;36332;51.384;0.040;2023-05-10T04:33:35;24.17;;;12.70;;
27706;SDS011;36332;51.384;0.040;2023-05-10T04:36:03;30.35;;;13.77;;
27706;SDS011;36332;51.384;0.040;2023-05-10T04:38:31;27.70;;;14.10;;
27706;SDS011;36332;51.384;0.040;2023-05-10T04:41:03;22.48;;;11.65;;
27706;SDS011;36332;51.384;0.040;2023-05-10T04:43:32;29.65;;;13.75;;
27706;SDS011;36332;51.384;0.040;2023-05-10T04:46:00;30.27;;;13.82;;
27706;SDS011;36332;51.384;0.040;2023-05-10T04:48:28;30.75;;;13.82;;
27706;SDS011;36332;51.384;0.040;2023-05-10T04:50:56;33.42;;;14.02;;
27706;SDS011;36332;51.384;0.040;2023-05-10T04:53:24;27.17;;;12.35;;
27706;SDS011;36332;51.384;0.040;2023-05-10T04:55:51;28.83;;;13.32;;
27706;SDS011;36332;51.384;0.040;2023-05-10T04:58:19;33.20;;;13.27;;
27706;SDS011;36332;51.384;0.040;2023-05-10T05:00:47;25.08;;;12.27;;
27706;SDS011;36332;51.384;0.040;2023-05-10T05:03:15;24.95;;;13.93;;
27706;SDS011;36332;51.384;0.040;2023-05-10T05:05:43;27.45;;;13.85;;
27706;SDS011;36332;51.384;0.040;2023-05-10T05:08:11;29.90;;;14.00;;
27706;SDS011;36332;51.384;0.040;2023-05-10T05:10:40;30.42;;;14.45;;
27706;SDS011;36332;51.384;0.040;2023-05-10T05:13:07;32.28;;;14.55;;
27706;SDS011;36332;51.384;0.040;2023-05-10T05:15:35;30.83;;;14.55;;
27706;SDS011;36332;51.384;0.040;2023-05-10T05:18:02;26.77;;;13.68;;
27706;SDS011;36332;51.384;0.040;2023-05-10T05:20:31;37.70;;;15.05;;
27706;SDS011;36332;51.384;0.040;2023-05-10T05:23:00;31.90;;;13.73;;
27706;SDS011;36332;51.384;0.040;2023-05-10T05:25:29;34.75;;;14.80;;
27706;SDS011;36332;51.384;0.040;2023-05-10T05:27:56;27.20;;;14.20;;
27706;SDS011;36332;51.384;0.040;2023-05-10T05:30:23;28.52;;;15.50;;
27706;SDS011;36332;51.384;0.040;2023-05-10T05:32:51;33.90;;;15.10;;
27706;SDS011;36332;51.384;0.040;2023-05-10T05:35:19;29.42;;;14.63;;
27706;SDS011;36332;51.384;0.040;2023-05-10T05:37:47;35.50;;;15.35;;
27706;SDS011;36332;51.384;0.040;2023-05-10T05:40:14;31.90;;;15.88;;
27706;SDS011;36332;51.384;0.040;2023-05-10T05:42:42;37.28;;;16.20;;
27706;SDS011;36332;51.384;0.040;2023-05-10T05:45:10;39.00;;;15.30;;
27706;SDS011;36332;51.384;0.040;2023-05-10T05:47:40;37.20;;;14.75;;
27706;SDS011;36332;51.384;0.040;2023-05-10T05:50:08;39.28;;;16.50;;
27706;SDS011;36332;51.384;0.040;2023-05-10T05:52:36;33.28;;;15.73;;
27706;SDS011;36332;51.384;0.040;2023-05-10T05:55:04;32.28;;;16.08;;
27706;SDS011;36332;51.384;0.040;2023-05-10T05:57:32;30.83;;;17.58;;
27706;SDS011;36332;51.384;0.040;2023-05-10T05:59:59;34.80;;;15.98;;
27706;SDS011;36332;51.384;0.040;2023-05-10T06:02:27;26.00;;;14.88;;
27706;SDS011;36332;51.384;0.040;2023-05-10T06:04:55;41.75;;;16.48;;
27706;SDS011;36332;51.384;0.040;2023-05-10T06:07:22;32.45;;;15.55;;
27706;SDS011;36332;51.384;0.040;2023-05-10T06:09:50;35.95;;;16.15;;
27706;SDS011;36332;51.384;0.040;2023-05-10T06:12:17;37.88;;;17.83;;
27706;SDS011;36332;51.384;0.040;2023-05-10T06:14:45;38.55;;;16.85;;
27706;SDS011;36332;51.384;0.040;2023-05-10T06:17:12;29.13;;;16.67;;
27706;SDS011;36332;51.384;0.040;2023-05-10T06:19:39;35.05;;;15.95;;
27706;SDS011;36332;51.384;0.040;2023-05-10T06:22:07;34.00;;;15.45;;
27706;SDS011;36332;51.384;0.040;2023-05-10T06:24:34;30.77;;;15.02;;
27706;SDS011;36332;51.384;0.040;2023-05-10T06:27:02;30.73;;;14.30;;
27706;SDS011;36332;51.384;0.040;2023-05-10T06:29:30;28.33;;;14.63;;
27706;SDS011;36332;51.384;0.040;2023-05-10T06:31:58;30.98;;;13.75;;
27706;SDS011;36332;51.384;0.040;2023-05-10T06:34:26;31.13;;;13.60;;
27706;SDS011;36332;51.384;0.040;2023-05-10T06:36:53;27.52;;;13.15;;
27706;SDS011;36332;51.384;0.040;2023-05-10T06:39:21;24.70;;;12.50;;
27706;SDS011;36332;51.384;0.040;2023-05-10T06:41:49;20.45;;;12.02;;
27706;SDS011;36332;51.384;0.040;2023-05-10T06:44:18;27.52;;;12.23;;
27706;SDS011;36332;51.384;0.040;2023-05-10T06:46:46;24.65;;;11.55;;
27706;SDS011;36332;51.384;0.040;2023-05-10T06:49:13;20.88;;;12.50;;
27706;SDS011;36332;51.384;0.040;2023-05-10T06:51:42;30.58;;;12.65;;
27706;SDS011;36332;51.384;0.040;2023-05-10T06:54:09;22.55;;;12.07;;
27706;SDS011;36332;51.384;0.040;2023-05-10T06:56:37;25.55;;;13.00;;
27706;SDS011;36332;51.384;0.040;2023-05-10T06:59:04;23.08;;;10.75;;
27706;SDS011;36332;51.384;0.040;2023-05-10T07:01:32;29.73;;;13.10;;
27706;SDS011;36332;51.384;0.040;2023-05-10T07:04:00;24.02;;;11.63;;
27706;SDS011;36332;51.384;0.040;2023-05-10T07:06:27;22.00;;;11.57;;
27706;SDS011;36332;51.384;0.040;2023-05-10T07:09:00;29.58;;;11.32;;
27706;SDS011;36332;51.384;0.040;2023-05-10T07:11:27;25.05;;;11.25;;
27706;SDS011;36332;51.384;0.040;2023-05-10T07:13:55;25.08;;;10.73;;
27706;SDS011;36332;51.384;0.040;2023-05-10T07:16:23;21.90;;;10.07;;
27706;SDS011;36332;51.384;0.040;2023-05-10T07:18:54;23.10;;;10.43;;
27706;SDS011;36332;51.384;0.040;2023-05-10T07:21:21;22.77;;;11.45;;
27706;SDS011;36332;51.384;0.040;2023-05-10T07:23:51;22.92;;;10.52;;
27706;SDS011;36332;51.384;0.040;2023-05-10T07:26:18;22.05;;;9.35;;
27706;SDS011;36332;51.384;0.040;2023-05-10T07:28:47;24.38;;;9.02;;
27706;SDS011;36332;51.384;0.040;2023-05-10T07:31:15;20.55;;;8.85;;
27706;SDS011;36332;51.384;0.040;2023-05-10T07:33:42;21.75;;;9.45;;
27706;SDS011;36332;51.384;0.040;2023-05-10T07:36:10;24.90;;;8.75;;
27706;SDS011;36332;51.384;0.040;2023-05-10T07:38:37;19.02;;;8.27;;
27706;SDS011;36332;51.384;0.040;2023-05-10T07:41:06;13.93;;;8.13;;
27706;SDS011;36332;51.384;0.040;2023-05-10T07:43:34;27.17;;;8.68;;
27706;SDS011;36332;51.384;0.040;2023-05-10T07:46:01;22.17;;;8.70;;
27706;SDS011;36332;51.384;0.040;2023-05-10T07:48:29;20.70;;;7.93;;
27706;SDS011;36332;51.384;0.040;2023-05-10T07:50:57;26.77;;;7.93;;
27706;SDS011;36332;51.384;0.040;2023-05-10T07:53:25;23.67;;;8.43;;
27706;SDS011;36332;51.384;0.040;2023-05-10T07:55:54;20.95;;;8.73;;
27706;SDS011;36332;51.384;0.040;2023-05-10T07:58:25;25.70;;;7.47;;
27706;SDS011;36332;51.384;0.040;2023-05-10T08:00:53;18.48;;;7.15;;
27706;SDS011;36332;51.384;0.040;2023-05-10T08:03:20;21.27;;;7.35;;
27706;SDS011;36332;51.384;0.040;2023-05-10T08:05:48;25.20;;;6.97;;
27706;SDS011;36332;51.384;0.040;2023-05-10T08:08:16;18.00;;;7.75;;
27706;SDS011;36332;51.384;0.040;2023-05-10T08:10:44;17.60;;;6.05;;
27706;SDS011;36332;51.384;0.040;2023-05-10T08:13:12;22.60;;;6.78;;
27706;SDS011;36332;51.384;0.040;2023-05-10T08:15:39;15.85;;;6.13;;
27706;SDS011;36332;51.384;0.040;2023-05-10T08:18:07;15.77;;;5.15;;
27706;SDS011;36332;51.384;0.040;2023-05-10T08:20:34;16.23;;;5.90;;
27706;SDS011;36332;51.384;0.040;2023-05-10T08:23:02;19.38;;;6.15;;
27706;SDS011;36332;51.384;0.040;2023-05-10T08:25:31;14.23;;;5.45;;
27706;SDS011;36332;51.384;0.040;2023-05-10T08:27:59;17.95;;;6.13;;
27706;SDS011;36332;51.384;0.040;2023-05-10T08:30:26;23.33;;;5.75;;
27706;SDS011;36332;51.384;0.040;2023-05-10T08:32:55;17.00;;;5.20;;
27706;SDS011;36332;51.384;0.040;2023-05-10T08:35:25;20.67;;;6.75;;
27706;SDS011;36332;51.384;0.040;2023-05-10T08:37:53;17.15;;;5.38;;
27706;SDS011;36332;51.384;0.040;2023-05-10T08:40:20;26.65;;;7.15;;
27706;SDS011;36332;51.384;0.040;2023-05-10T08:42:51;17.30;;;6.25;;
27706;SDS011;36332;51.384;0.040;2023-05-10T08:45:35;16.95;;;5.50;;
27706;SDS011;36332;51.384;0.040;2023-05-10T08:48:06;19.25;;;5.75;;
27706;SDS011;36332;51.384;0.040;2023-05-10T08:50:38;13.13;;;4.43;;
27706;SDS011;36332;51.384;0.040;2023-05-10T08:53:10;10.88;;;4.20;;
27706;SDS011;36332;51.384;0.040;2023-05-10T08:55:40;13.95;;;5.20;;
27706;SDS011;36332;51.384;0.040;2023-05-10T08:58:09;16.58;;;5.07;;
27706;SDS011;36332;51.384;0.040;2023-05-10T09:00:37;18.10;;;5.70;;
27706;SDS011;36332;51.384;0.040;2023-05-10T09:03:05;20.35;;;5.93;;
27706;SDS011;36332;51.384;0.040;2023-05-10T09:05:33;14.30;;;4.57;;
27706;SDS011;36332;51.384;0.040;2023-05-10T09:08:01;16.98;;;4.38;;
27706;SDS011;36332;51.384;0.040;2023-05-10T09:10:28;14.05;;;4.95;;
27706;SDS011;36332;51.384;0.040;2023-05-10T09:12:58;14.43;;;4.80;;
27706;SDS011;36332;51.384;0.040;2023-05-10T09:15:26;16.02;;;5.32;;
27706;SDS011;36332;51.384;0.040;2023-05-10T09:17:54;16.65;;;4.57;;
27706;SDS011;36332;51.384;0.040;2023-05-10T09:20:23;16.85;;;5.18;;
27706;SDS011;36332;51.384;0.040;2023-05-10T09:22:52;15.30;;;4.70;;
27706;SDS011;36332;51.384;0.040;2023-05-10T09:25:19;11.20;;;4.47;;
27706;SDS011;36332;51.384;0.040;2023-05-10T09:27:47;13.30;;;5.43;;
27706;SDS011;36332;51.384;0.040;2023-05-10T09:30:17;15.77;;;5.25;;
27706;SDS011;36332;51.384;0.040;2023-05-10T09:32:51;14.82;;;5.05;;
27706;SDS011;36332;51.384;0.040;2023-05-10T09:35:19;16.23;;;5.47;;
27706;SDS011;36332;51.384;0.040;2023-05-10T09:37:49;19.15;;;5.63;;
27706;SDS011;36332;51.384;0.040;2023-05-10T09:40:19;13.82;;;5.05;;
27706;SDS011;36332;51.384;0.040;2023-05-10T09:42:52;14.98;;;5.00;;
27706;SDS011;36332;51.384;0.040;2023-05-10T09:45:29;17.85;;;5.72;;
27706;SDS011;36332;51.384;0.040;2023-05-10T09:47:58;16.70;;;5.80;;
27706;SDS011;36332;51.384;0.040;2023-05-10T09:50:27;12.77;;;4.53;;
27706;SDS011;36332;51.384;0.040;2023-05-10T09:52:57;14.32;;;4.43;;
27706;SDS011;36332;51.384;0.040;2023-05-10T09:58:07;13.98;;;4.60;;
27706;SDS011;36332;51.384;0.040;2023-05-10T10:00:38;12.50;;;4.40;;
27706;SDS011;36332;51.384;0.040;2023-05-10T10:03:12;10.13;;;4.85;;
27706;SDS011;36332;51.384;0.040;2023-05-10T10:05:42;12.88;;;5.07;;
27706;SDS011;36332;51.384;0.040;2023-05-10T10:08:12;11.70;;;4.93;;
27706;SDS011;36332;51.384;0.040;2023-05-10T10:10:43;20.38;;;5.70;;
27706;SDS011;36332;51.384;0.040;2023-05-10T10:13:13;12.82;;;4.72;;
27706;SDS011;36332;51.384;0.040;2023-05-10T10:15:43;12.93;;;4.32;;
27706;SDS011;36332;51.384;0.040;2023-05-10T10:18:14;9.32;;;4.45;;
27706;SDS011;36332;51.384;0.040;2023-05-10T10:20:42;13.23;;;5.20;;
27706;SDS011;36332;51.384;0.040;2023-05-10T10:23:10;9.95;;;4.10;;
27706;SDS011;36332;51.384;0.040;2023-05-10T10:25:38;17.30;;;4.80;;
27706;SDS011;36332;51.384;0.040;2023-05-10T10:28:12;13.75;;;4.53;;
27706;SDS011;36332;51.384;0.040;2023-05-10T10:30:53;12.13;;;4.90;;
27706;SDS011;36332;51.384;0.040;2023-05-10T10:36:22;12.70;;;4.30;;
27706;SDS011;36332;51.384;0.040;2023-05-10T10:38:59;13.73;;;4.45;;
27706;SDS011;36332;51.384;0.040;2023-05-10T10:41:35;9.65;;;4.25;;
27706;SDS011;36332;51.384;0.040;2023-05-10T10:50:13;12.45;;;4.88;;
27706;SDS011;36332;51.384;0.040;2023-05-10T10:52:40;10.93;;;4.30;;
27706;SDS011;36332;51.384;0.040;2023-05-10T10:55:09;11.18;;;4.43;;
27706;SDS011;36332;51.384;0.040;2023-05-10T11:07:52;9.07;;;3.75;;
27706;SDS011;36332;51.384;0.040;2023-05-10T11:10:24;12.23;;;4.30;;
27706;SDS011;36332;51.384;0.040;2023-05-10T11:13:02;12.30;;;4.53;;
27706;SDS011;36332;51.384;0.040;2023-05-10T11:15:35;14.32;;;3.92;;
27706;SDS011;36332;51.384;0.040;2023-05-10T11:20:50;10.98;;;4.07;;
27706;SDS011;36332;51.384;0.040;2023-05-10T11:25:58;10.52;;;3.55;;
27706;SDS011;36332;51.384;0.040;2023-05-10T11:28:27;9.57;;;4.07;;
27706;SDS011;36332;51.384;0.040;2023-05-10T11:30:55;9.65;;;4.13;;
27706;SDS011;36332;51.384;0.040;2023-05-10T11:33:24;9.32;;;4.07;;
27706;SDS011;36332;51.384;0.040;2023-05-10T11:35:53;10.38;;;3.83;;
27706;SDS011;36332;51.384;0.040;2023-05-10T11:38:23;15.65;;;4.35;;
27706;SDS011;36332;51.384;0.040;2023-05-10T11:40:53;11.85;;;5.00;;
27706;SDS011;36332;51.384;0.040;2023-05-10T11:43:23;9.15;;;4.47;;
27706;SDS011;36332;51.384;0.040;2023-05-10T11:45:57;9.80;;;3.67;;
27706;SDS011;36332;51.384;0.040;2023-05-10T11:48:27;13.00;;;3.38;;
27706;SDS011;36332;51.384;0.040;2023-05-10T11:50:56;10.40;;;3.60;;
27706;SDS011;36332;51.384;0.040;2023-05-10T11:53:31;9.20;;;4.30;;
27706;SDS011;36332;51.384;0.040;2023-05-10T11:56:02;7.93;;;3.22;;
27706;SDS011;36332;51.384;0.040;2023-05-10T11:58:35;10.27;;;2.95;;
27706;SDS011;36332;51.384;0.040;2023-05-10T12:01:06;8.50;;;2.63;;
27706;SDS011;36332;51.384;0.040;2023-05-10T12:03:35;9.27;;;3.53;;
27706;SDS011;36332;51.384;0.040;2023-05-10T12:06:04;9.57;;;2.42;;
27706;SDS011;36332;51.384;0.040;2023-05-10T12:08:33;12.90;;;2.50;;
27706;SDS011;36332;51.384;0.040;2023-05-10T12:11:04;5.63;;;2.17;;
27706;SDS011;36332;51.384;0.040;2023-05-10T12:13:37;5.05;;;2.50;;
27706;SDS011;36332;51.384;0.040;2023-05-10T12:16:17;6.60;;;2.15;;
27706;SDS011;36332;51.384;0.040;2023-05-10T12:18:49;5.45;;;2.08;;
27706;SDS011;36332;51.384;0.040;2023-05-10T12:21:18;4.22;;;2.00;;
27706;SDS011;36332;51.384;0.040;2023-05-10T12:23:52;5.07;;;1.95;;
27706;SDS011;36332;51.384;0.040;2023-05-10T12:26:21;5.22;;;2.20;;
27706;SDS011;36332;51.384;0.040;2023-05-10T12:28:50;6.57;;;2.70;;
27706;SDS011;36332;51.384;0.040;2023-05-10T12:31:17;9.48;;;2.65;;
27706;SDS011;36332;51.384;0.040;2023-05-10T12:33:45;4.65;;;2.10;;
27706;SDS011;36332;51.384;0.040;2023-05-10T12:36:14;8.00;;;2.75;;
27706;SDS011;36332;51.384;0.040;2023-05-10T12:38:43;9.02;;;2.35;;
27706;SDS011;36332;51.384;0.040;2023-05-10T12:41:15;9.27;;;2.70;;
27706;SDS011;36332;51.384;0.040;2023-05-10T12:43:44;6.15;;;2.40;;
27706;SDS011;36332;51.384;0.040;2023-05-10T12:46:13;6.72;;;2.80;;
27706;SDS011;36332;51.384;0.040;2023-05-10T12:48:42;8.05;;;2.30;;
27706;SDS011;36332;51.384;0.040;2023-05-10T12:51:10;8.65;;;2.85;;
27706;SDS011;36332;51.384;0.040;2023-05-10T12:53:40;7.55;;;2.50;;
27706;SDS011;36332;51.384;0.040;2023-05-10T12:56:11;7.47;;;2.88;;
27706;SDS011;36332;51.384;0.040;2023-05-10T12:58:39;8.10;;;2.35;;
27706;SDS011;36332;51.384;0.040;2023-05-10T13:01:07;8.60;;;2.50;;
27706;SDS011;36332;51.384;0.040;2023-05-10T13:03:35;5.20;;;2.08;;
27706;SDS011;36332;51.384;0.040;2023-05-10T13:06:02;9.98;;;2.45;;
27706;SDS011;36332;51.384;0.040;2023-05-10T13:08:30;5.93;;;2.25;;
27706;SDS011;36332;51.384;0.040;2023-05-10T13:11:01;9.02;;;2.45;;
27706;SDS011;36332;51.384;0.040;2023-05-10T13:13:29;6.13;;;2.25;;
27706;SDS011;36332;51.384;0.040;2023-05-10T13:15:57;9.43;;;2.83;;
27706;SDS011;36332;51.384;0.040;2023-05-10T13:18:24;8.45;;;2.90;;
27706;SDS011;36332;51.384;0.040;2023-05-10T13:20:53;6.70;;;2.20;;
27706;SDS011;36332;51.384;0.040;2023-05-10T13:23:22;7.68;;;2.88;;
27706;SDS011;36332;51.384;0.040;2023-05-10T13:25:50;10.13;;;2.95;;
27706;SDS011;36332;51.384;0.040;2023-05-10T13:28:17;11.93;;;2.72;;
27706;SDS011;36332;51.384;0.040;2023-05-10T13:30:46;10.23;;;2.85;;
27706;SDS011;36332;51.384;0.040;2023-05-10T13:33:14;10.45;;;3.72;;
27706;SDS011;36332;51.384;0.040;2023-05-10T13:35:41;11.88;;;3.33;;
27706;SDS011;36332;51.384;0.040;2023-05-10T13:38:09;13.05;;;3.63;;
27706;SDS011;36332;51.384;0.040;2023-05-10T13:40:37;10.20;;;3.35;;
27706;SDS011;36332;51.384;0.040;2023-05-10T13:43:04;10.45;;;3.15;;
27706;SDS011;36332;51.384;0.040;2023-05-10T13:45:32;15.57;;;4.25;;
27706;SDS011;36332;51.384;0.040;2023-05-10T13:47:59;8.23;;;2.95;;
27706;SDS011;36332;51.384;0.040;2023-05-10T13:50:27;13.35;;;3.13;;
27706;SDS011;36332;51.384;0.040;2023-05-10T13:52:55;9.15;;;2.30;;
27706;SDS011;36332;51.384;0.040;2023-05-10T13:55:23;6.88;;;2.58;;
27706;SDS011;36332;51.384;0.040;2023-05-10T13:57:51;5.07;;;2.03;;
27706;SDS011;36332;51.384;0.040;2023-05-10T14:00:18;6.95;;;2.47;;
27706;SDS011;36332;51.384;0.040;2023-05-10T14:02:47;10.23;;;3.10;;
27706;SDS011;36332;51.384;0.040;2023-05-10T14:05:15;5.90;;;2.60;;
27706;SDS011;36332;51.384;0.040;2023-05-10T14:07:44;10.68;;;2.70;;
27706;SDS011;36332;51.384;0.040;2023-05-10T14:10:12;5.47;;;2.42;;
27706;SDS011;36332;51.384;0.040;2023-05-10T14:12:40;10.48;;;2.30;;
27706;SDS011;36332;51.384;0.040;2023-05-10T14:15:08;7.55;;;2.53;;
27706;SDS011;36332;51.384;0.040;2023-05-10T14:17:38;8.25;;;2.22;;
27706;SDS011;36332;51.384;0.040;2023-05-10T14:20:06;9.82;;;2.53;;
27706;SDS011;36332;51.384;0.040;2023-05-10T14:22:34;10.25;;;3.00;;
27706;SDS011;36332;51.384;0.040;2023-05-10T14:25:02;7.03;;;2.72;;
27706;SDS011;36332;51.384;0.040;2023-05-10T14:27:31;8.57;;;2.80;;
27706;SDS011;36332;51.384;0.040;2023-05-10T14:29:59;10.77;;;2.72;;
27706;SDS011;36332;51.384;0.040;2023-05-10T14:32:27;8.57;;;3.08;;
27706;SDS011;36332;51.384;0.040;2023-05-10T14:34:55;7.25;;;2.45;;
27706;SDS011;36332;51.384;0.040;2023-05-10T14:37:24;7.28;;;2.30;;
27706;SDS011;36332;51.384;0.040;2023-05-10T14:39:51;8.30;;;2.30;;
27706;SDS011;36332;51.384;0.040;2023-05-10T14:42:19;6.20;;;2.63;;
27706;SDS011;36332;51.384;0.040;2023-05-10T14:44:47;8.82;;;2.50;;
27706;SDS011;36332;51.384;0.040;2023-05-10T14:47:15;7.35;;;3.03;;
27706;SDS011;36332;51.384;0.040;2023-05-10T14:49:43;11.02;;;3.42;;
27706;SDS011;36332;51.384;0.040;2023-05-10T14:52:11;9.80;;;3.38;;
27706;SDS011;36332;51.384;0.040;2023-05-10T14:54:39;7.45;;;2.30;;
27706;SDS011;36332;51.384;0.040;2023-05-10T14:57:08;5.18;;;1.52;;
27706;SDS011;36332;51.384;0.040;2023-05-10T14:59:35;5.47;;;1.70;;
27706;SDS011;36332;51.384;0.040;2023-05-10T15:02:03;5.32;;;1.40;;
27706;SDS011;36332;51.384;0.040;2023-05-10T15:04:32;3.42;;;1.35;;
27706;SDS011;36332;51.384;0.040;2023-05-10T15:07:00;3.72;;;1.25;;
27706;SDS011;36332;51.384;0.040;2023-05-10T15:09:27;1.42;;;0.82;;
27706;SDS011;36332;51.384;0.040;2023-05-10T15:11:55;2.55;;;0.88;;
27706;SDS011;36332;51.384;0.040;2023-05-10T15:14:23;1.40;;;1.13;;
27706;SDS011;36332;51.384;0.040;2023-05-10T15:16:50;2.70;;;0.70;;
27706;SDS011;36332;51.384;0.040;2023-05-10T15:19:19;1.95;;;1.15;;
27706;SDS011;36332;51.384;0.040;2023-05-10T15:21:47;3.00;;;0.73;;